Terminal Aerodrome Forecast
Issued by NWS

Home | Current Version | Previous Version | Graphics & Text | Print | Product List | Glossary On
Versions: 1 2 3 4 5 6 7 8 9 10 11 12 13 14 15 16 17 18
000
FTUS43 KICT 021120
TAFRSL
TAF
KRSL 021120Z 0212/0312 04006KT P6SM FEW009 SCT015
      TEMPO 0212/0213 SCT009 BKN015
     FM021300 35011KT P6SM VCTS SCT030 BKN060CB
      TEMPO 0213/0216 VRB15G25KT 5SM TSRA BKN030CB
     FM021800 36007KT P6SM SCT060 BKN150=

USA.gov is the U.S. government's official web portal to all federal, state and local government web resources and services.